sensor_id;sensor_type;location;lat;lon;timestamp;P1;durP1;ratioP1;P2;durP2;ratioP2
68765;SDS011;55756;45.582;11.484;2023-02-22T00:01:19;179.55;;;90.90;;
68765;SDS011;55756;45.582;11.484;2023-02-22T00:04:06;178.25;;;90.40;;
68765;SDS011;55756;45.582;11.484;2023-02-22T00:06:34;176.82;;;90.70;;
68765;SDS011;55756;45.582;11.484;2023-02-22T00:09:00;171.05;;;88.88;;
68765;SDS011;55756;45.582;11.484;2023-02-22T00:11:26;181.43;;;89.72;;
68765;SDS011;55756;45.582;11.484;2023-02-22T00:13:52;177.93;;;90.85;;
68765;SDS011;55756;45.582;11.484;2023-02-22T00:18:47;183.18;;;93.13;;
68765;SDS011;55756;45.582;11.484;2023-02-22T00:21:14;178.85;;;91.78;;
68765;SDS011;55756;45.582;11.484;2023-02-22T00:23:42;179.40;;;90.30;;
68765;SDS011;55756;45.582;11.484;2023-02-22T00:26:11;179.98;;;92.65;;
68765;SDS011;55756;45.582;11.484;2023-02-22T00:28:46;171.27;;;88.63;;
68765;SDS011;55756;45.582;11.484;2023-02-22T00:31:15;180.25;;;92.32;;
68765;SDS011;55756;45.582;11.484;2023-02-22T00:33:41;177.18;;;92.13;;
68765;SDS011;55756;45.582;11.484;2023-02-22T00:36:08;181.35;;;93.72;;
68765;SDS011;55756;45.582;11.484;2023-02-22T00:38:35;184.05;;;93.50;;
68765;SDS011;55756;45.582;11.484;2023-02-22T00:41:01;186.30;;;93.28;;
68765;SDS011;55756;45.582;11.484;2023-02-22T00:43:27;181.07;;;93.55;;
68765;SDS011;55756;45.582;11.484;2023-02-22T00:45:53;181.15;;;94.13;;
68765;SDS011;55756;45.582;11.484;2023-02-22T00:48:23;179.80;;;91.90;;
68765;SDS011;55756;45.582;11.484;2023-02-22T00:50:50;185.00;;;93.40;;
68765;SDS011;55756;45.582;11.484;2023-02-22T00:55:45;180.48;;;90.28;;
68765;SDS011;55756;45.582;11.484;2023-02-22T00:58:11;173.85;;;89.95;;
68765;SDS011;55756;45.582;11.484;2023-02-22T01:00:38;182.55;;;93.45;;
68765;SDS011;55756;45.582;11.484;2023-02-22T01:03:06;177.38;;;91.88;;
68765;SDS011;55756;45.582;11.484;2023-02-22T01:05:34;181.23;;;91.47;;
68765;SDS011;55756;45.582;11.484;2023-02-22T01:08:03;189.18;;;94.95;;
68765;SDS011;55756;45.582;11.484;2023-02-22T01:10:32;187.60;;;93.93;;
68765;SDS011;55756;45.582;11.484;2023-02-22T01:12:59;186.38;;;93.28;;
68765;SDS011;55756;45.582;11.484;2023-02-22T01:15:27;187.30;;;94.60;;
68765;SDS011;55756;45.582;11.484;2023-02-22T01:17:55;185.15;;;94.35;;
68765;SDS011;55756;45.582;11.484;2023-02-22T01:20:23;181.38;;;92.72;;
68765;SDS011;55756;45.582;11.484;2023-02-22T01:22:51;186.40;;;92.85;;
68765;SDS011;55756;45.582;11.484;2023-02-22T01:25:19;183.25;;;93.28;;
68765;SDS011;55756;45.582;11.484;2023-02-22T01:27:49;186.00;;;94.95;;
68765;SDS011;55756;45.582;11.484;2023-02-22T01:30:19;189.45;;;96.28;;
68765;SDS011;55756;45.582;11.484;2023-02-22T01:32:46;188.18;;;96.40;;
68765;SDS011;55756;45.582;11.484;2023-02-22T01:35:14;193.65;;;98.30;;
68765;SDS011;55756;45.582;11.484;2023-02-22T01:37:43;193.95;;;98.85;;
68765;SDS011;55756;45.582;11.484;2023-02-22T01:40:13;196.45;;;99.53;;
68765;SDS011;55756;45.582;11.484;2023-02-22T01:42:46;192.80;;;96.85;;
68765;SDS011;55756;45.582;11.484;2023-02-22T01:47:55;193.70;;;96.65;;
68765;SDS011;55756;45.582;11.484;2023-02-22T01:50:24;190.60;;;96.68;;
68765;SDS011;55756;45.582;11.484;2023-02-22T01:52:50;193.57;;;96.95;;
68765;SDS011;55756;45.582;11.484;2023-02-22T01:55:16;192.57;;;96.55;;
68765;SDS011;55756;45.582;11.484;2023-02-22T01:57:44;195.73;;;96.50;;
68765;SDS011;55756;45.582;11.484;2023-02-22T02:00:15;182.43;;;95.38;;
68765;SDS011;55756;45.582;11.484;2023-02-22T02:02:47;188.23;;;94.65;;
68765;SDS011;55756;45.582;11.484;2023-02-22T02:05:20;181.55;;;93.03;;
68765;SDS011;55756;45.582;11.484;2023-02-22T02:07:48;189.50;;;92.80;;
68765;SDS011;55756;45.582;11.484;2023-02-22T02:10:27;181.68;;;94.88;;
68765;SDS011;55756;45.582;11.484;2023-02-22T02:12:53;183.88;;;92.13;;
68765;SDS011;55756;45.582;11.484;2023-02-22T02:15:28;186.80;;;93.00;;
68765;SDS011;55756;45.582;11.484;2023-02-22T02:18:01;179.23;;;91.93;;
68765;SDS011;55756;45.582;11.484;2023-02-22T02:25:51;175.07;;;91.05;;
68765;SDS011;55756;45.582;11.484;2023-02-22T02:34:04;186.30;;;92.68;;
68765;SDS011;55756;45.582;11.484;2023-02-22T02:36:59;181.80;;;91.07;;
68765;SDS011;55756;45.582;11.484;2023-02-22T02:39:59;185.25;;;92.82;;
68765;SDS011;55756;45.582;11.484;2023-02-22T02:45:49;184.13;;;92.65;;
68765;SDS011;55756;45.582;11.484;2023-02-22T02:48:24;178.50;;;90.88;;
68765;SDS011;55756;45.582;11.484;2023-02-22T02:50:53;188.25;;;93.78;;
68765;SDS011;55756;45.582;11.484;2023-02-22T02:53:21;183.93;;;94.35;;
68765;SDS011;55756;45.582;11.484;2023-02-22T02:55:52;181.32;;;92.15;;
68765;SDS011;55756;45.582;11.484;2023-02-22T02:58:18;185.88;;;93.32;;
68765;SDS011;55756;45.582;11.484;2023-02-22T03:00:46;181.50;;;91.22;;
68765;SDS011;55756;45.582;11.484;2023-02-22T03:08:57;171.40;;;88.28;;
68765;SDS011;55756;45.582;11.484;2023-02-22T03:11:36;167.77;;;86.55;;
68765;SDS011;55756;45.582;11.484;2023-02-22T03:14:26;185.07;;;92.93;;
68765;SDS011;55756;45.582;11.484;2023-02-22T03:18:00;181.65;;;90.90;;
68765;SDS011;55756;45.582;11.484;2023-02-22T03:20:21;174.43;;;88.75;;
68765;SDS011;55756;45.582;11.484;2023-02-22T03:22:58;179.70;;;88.97;;
68765;SDS011;55756;45.582;11.484;2023-02-22T03:25:39;175.93;;;89.47;;
68765;SDS011;55756;45.582;11.484;2023-02-22T03:28:13;180.70;;;91.53;;
68765;SDS011;55756;45.582;11.484;2023-02-22T03:30:44;174.80;;;90.00;;
68765;SDS011;55756;45.582;11.484;2023-02-22T03:33:38;185.27;;;90.38;;
68765;SDS011;55756;45.582;11.484;2023-02-22T03:36:11;171.60;;;88.10;;
68765;SDS011;55756;45.582;11.484;2023-02-22T03:38:59;178.52;;;90.43;;
68765;SDS011;55756;45.582;11.484;2023-02-22T03:41:28;168.55;;;85.68;;
68765;SDS011;55756;45.582;11.484;2023-02-22T03:46:27;169.85;;;87.45;;
68765;SDS011;55756;45.582;11.484;2023-02-22T03:49:04;163.73;;;85.05;;
68765;SDS011;55756;45.582;11.484;2023-02-22T03:51:38;167.65;;;86.95;;
68765;SDS011;55756;45.582;11.484;2023-02-22T03:54:04;161.45;;;83.93;;
68765;SDS011;55756;45.582;11.484;2023-02-22T03:56:37;168.20;;;84.43;;
68765;SDS011;55756;45.582;11.484;2023-02-22T03:59:11;170.30;;;84.28;;
68765;SDS011;55756;45.582;11.484;2023-02-22T04:01:37;169.65;;;83.68;;
68765;SDS011;55756;45.582;11.484;2023-02-22T04:04:03;156.27;;;80.65;;
68765;SDS011;55756;45.582;11.484;2023-02-22T04:06:30;162.48;;;85.70;;
68765;SDS011;55756;45.582;11.484;2023-02-22T04:08:57;165.73;;;85.03;;
68765;SDS011;55756;45.582;11.484;2023-02-22T04:11:23;171.02;;;86.82;;
68765;SDS011;55756;45.582;11.484;2023-02-22T04:13:50;168.15;;;82.38;;
68765;SDS011;55756;45.582;11.484;2023-02-22T04:16:16;158.32;;;83.45;;
68765;SDS011;55756;45.582;11.484;2023-02-22T04:18:42;168.75;;;84.35;;
68765;SDS011;55756;45.582;11.484;2023-02-22T04:21:09;167.48;;;85.20;;
68765;SDS011;55756;45.582;11.484;2023-02-22T04:23:39;170.23;;;85.97;;
68765;SDS011;55756;45.582;11.484;2023-02-22T04:26:06;174.75;;;87.57;;
68765;SDS011;55756;45.582;11.484;2023-02-22T04:28:32;174.68;;;86.63;;
68765;SDS011;55756;45.582;11.484;2023-02-22T04:31:27;165.60;;;85.97;;
68765;SDS011;55756;45.582;11.484;2023-02-22T04:33:56;167.45;;;84.90;;
68765;SDS011;55756;45.582;11.484;2023-02-22T04:36:26;170.50;;;84.90;;
68765;SDS011;55756;45.582;11.484;2023-02-22T04:38:52;159.48;;;83.63;;
68765;SDS011;55756;45.582;11.484;2023-02-22T04:41:19;164.38;;;83.43;;
68765;SDS011;55756;45.582;11.484;2023-02-22T04:43:45;168.93;;;84.50;;
68765;SDS011;55756;45.582;11.484;2023-02-22T04:46:17;171.00;;;87.28;;
68765;SDS011;55756;45.582;11.484;2023-02-22T04:48:44;172.70;;;87.10;;
68765;SDS011;55756;45.582;11.484;2023-02-22T04:51:09;182.82;;;90.15;;
68765;SDS011;55756;45.582;11.484;2023-02-22T04:53:39;172.43;;;85.63;;
68765;SDS011;55756;45.582;11.484;2023-02-22T04:56:05;173.80;;;87.90;;
68765;SDS011;55756;45.582;11.484;2023-02-22T04:58:31;175.55;;;85.28;;
68765;SDS011;55756;45.582;11.484;2023-02-22T05:00:57;165.43;;;83.70;;
68765;SDS011;55756;45.582;11.484;2023-02-22T05:03:25;167.93;;;83.60;;
68765;SDS011;55756;45.582;11.484;2023-02-22T05:05:51;164.15;;;83.32;;
68765;SDS011;55756;45.582;11.484;2023-02-22T05:08:17;149.05;;;76.72;;
68765;SDS011;55756;45.582;11.484;2023-02-22T05:10:43;148.93;;;76.32;;
68765;SDS011;55756;45.582;11.484;2023-02-22T05:13:09;148.98;;;76.80;;
68765;SDS011;55756;45.582;11.484;2023-02-22T05:15:35;167.80;;;87.32;;
68765;SDS011;55756;45.582;11.484;2023-02-22T05:18:00;169.82;;;86.15;;
68765;SDS011;55756;45.582;11.484;2023-02-22T05:20:30;164.52;;;83.43;;
68765;SDS011;55756;45.582;11.484;2023-02-22T05:22:59;161.73;;;83.57;;
68765;SDS011;55756;45.582;11.484;2023-02-22T05:25:26;168.63;;;85.72;;
68765;SDS011;55756;45.582;11.484;2023-02-22T05:27:53;178.38;;;87.55;;
68765;SDS011;55756;45.582;11.484;2023-02-22T05:30:22;172.13;;;86.75;;
68765;SDS011;55756;45.582;11.484;2023-02-22T05:32:50;173.63;;;86.22;;
68765;SDS011;55756;45.582;11.484;2023-02-22T05:35:17;176.40;;;86.05;;
68765;SDS011;55756;45.582;11.484;2023-02-22T05:37:44;177.43;;;85.40;;
68765;SDS011;55756;45.582;11.484;2023-02-22T05:40:10;172.95;;;85.90;;
68765;SDS011;55756;45.582;11.484;2023-02-22T05:42:39;170.93;;;85.30;;
68765;SDS011;55756;45.582;11.484;2023-02-22T05:45:07;169.57;;;84.90;;
68765;SDS011;55756;45.582;11.484;2023-02-22T05:47:40;172.77;;;85.35;;
68765;SDS011;55756;45.582;11.484;2023-02-22T05:50:06;173.32;;;86.20;;
68765;SDS011;55756;45.582;11.484;2023-02-22T05:52:32;172.93;;;83.93;;
68765;SDS011;55756;45.582;11.484;2023-02-22T05:54:58;171.50;;;85.40;;
68765;SDS011;55756;45.582;11.484;2023-02-22T05:57:27;161.48;;;83.00;;
68765;SDS011;55756;45.582;11.484;2023-02-22T05:59:52;166.45;;;81.85;;
68765;SDS011;55756;45.582;11.484;2023-02-22T06:02:18;164.93;;;81.55;;
68765;SDS011;55756;45.582;11.484;2023-02-22T06:04:44;163.95;;;82.10;;
68765;SDS011;55756;45.582;11.484;2023-02-22T06:07:10;164.35;;;82.20;;
68765;SDS011;55756;45.582;11.484;2023-02-22T06:09:37;172.52;;;83.28;;
68765;SDS011;55756;45.582;11.484;2023-02-22T06:12:03;159.35;;;81.85;;
68765;SDS011;55756;45.582;11.484;2023-02-22T06:14:29;166.55;;;81.07;;
68765;SDS011;55756;45.582;11.484;2023-02-22T06:16:58;154.80;;;77.43;;
68765;SDS011;55756;45.582;11.484;2023-02-22T06:19:25;158.82;;;79.97;;
68765;SDS011;55756;45.582;11.484;2023-02-22T06:21:51;160.48;;;76.93;;
68765;SDS011;55756;45.582;11.484;2023-02-22T06:24:19;148.68;;;77.43;;
68765;SDS011;55756;45.582;11.484;2023-02-22T06:26:45;158.30;;;78.93;;
68765;SDS011;55756;45.582;11.484;2023-02-22T06:29:18;159.07;;;78.35;;
68765;SDS011;55756;45.582;11.484;2023-02-22T06:31:44;160.70;;;80.18;;
68765;SDS011;55756;45.582;11.484;2023-02-22T06:34:09;161.13;;;79.82;;
68765;SDS011;55756;45.582;11.484;2023-02-22T06:36:35;159.00;;;78.15;;
68765;SDS011;55756;45.582;11.484;2023-02-22T06:39:01;153.95;;;77.10;;
68765;SDS011;55756;45.582;11.484;2023-02-22T06:41:27;150.85;;;75.55;;
68765;SDS011;55756;45.582;11.484;2023-02-22T06:43:53;154.38;;;77.40;;
68765;SDS011;55756;45.582;11.484;2023-02-22T06:46:19;158.93;;;80.65;;
68765;SDS011;55756;45.582;11.484;2023-02-22T06:48:45;161.88;;;79.68;;
68765;SDS011;55756;45.582;11.484;2023-02-22T06:51:11;161.52;;;79.47;;
68765;SDS011;55756;45.582;11.484;2023-02-22T06:53:37;164.18;;;81.63;;
68765;SDS011;55756;45.582;11.484;2023-02-22T06:56:03;165.65;;;84.55;;
68765;SDS011;55756;45.582;11.484;2023-02-22T06:58:29;174.20;;;85.90;;
68765;SDS011;55756;45.582;11.484;2023-02-22T07:00:54;171.65;;;84.05;;
68765;SDS011;55756;45.582;11.484;2023-02-22T07:03:20;163.10;;;81.85;;
68765;SDS011;55756;45.582;11.484;2023-02-22T07:05:46;171.57;;;84.90;;
68765;SDS011;55756;45.582;11.484;2023-02-22T07:08:12;172.00;;;84.47;;
68765;SDS011;55756;45.582;11.484;2023-02-22T07:10:38;165.40;;;82.18;;
68765;SDS011;55756;45.582;11.484;2023-02-22T07:13:05;164.95;;;82.55;;
68765;SDS011;55756;45.582;11.484;2023-02-22T07:15:33;175.40;;;84.95;;
68765;SDS011;55756;45.582;11.484;2023-02-22T07:17:59;181.00;;;89.00;;
68765;SDS011;55756;45.582;11.484;2023-02-22T07:20:27;177.20;;;88.07;;
68765;SDS011;55756;45.582;11.484;2023-02-22T07:22:54;176.90;;;87.70;;
68765;SDS011;55756;45.582;11.484;2023-02-22T07:25:21;187.40;;;93.00;;
68765;SDS011;55756;45.582;11.484;2023-02-22T07:27:47;190.57;;;93.20;;
68765;SDS011;55756;45.582;11.484;2023-02-22T07:30:17;184.90;;;92.03;;
68765;SDS011;55756;45.582;11.484;2023-02-22T07:32:49;186.48;;;92.50;;
68765;SDS011;55756;45.582;11.484;2023-02-22T07:35:18;184.13;;;90.57;;
68765;SDS011;55756;45.582;11.484;2023-02-22T07:37:54;185.10;;;91.30;;
68765;SDS011;55756;45.582;11.484;2023-02-22T07:40:21;185.68;;;92.55;;
68765;SDS011;55756;45.582;11.484;2023-02-22T07:42:55;189.93;;;93.43;;
68765;SDS011;55756;45.582;11.484;2023-02-22T07:45:34;196.18;;;92.82;;
68765;SDS011;55756;45.582;11.484;2023-02-22T07:48:01;194.02;;;94.15;;
68765;SDS011;55756;45.582;11.484;2023-02-22T07:50:29;206.30;;;97.07;;
68765;SDS011;55756;45.582;11.484;2023-02-22T07:52:57;202.47;;;94.57;;
68765;SDS011;55756;45.582;11.484;2023-02-22T07:55:25;202.50;;;95.68;;
68765;SDS011;55756;45.582;11.484;2023-02-22T07:57:53;210.85;;;98.53;;
68765;SDS011;55756;45.582;11.484;2023-02-22T08:00:31;222.25;;;99.93;;
68765;SDS011;55756;45.582;11.484;2023-02-22T08:03:00;205.02;;;97.85;;
68765;SDS011;55756;45.582;11.484;2023-02-22T08:05:27;217.32;;;99.32;;
68765;SDS011;55756;45.582;11.484;2023-02-22T08:07:54;220.05;;;99.03;;
68765;SDS011;55756;45.582;11.484;2023-02-22T08:10:21;212.85;;;100.43;;
68765;SDS011;55756;45.582;11.484;2023-02-22T08:12:47;221.07;;;101.20;;
68765;SDS011;55756;45.582;11.484;2023-02-22T08:15:18;207.77;;;96.72;;
68765;SDS011;55756;45.582;11.484;2023-02-22T08:17:55;213.50;;;96.93;;
68765;SDS011;55756;45.582;11.484;2023-02-22T08:20:22;210.27;;;97.43;;
68765;SDS011;55756;45.582;11.484;2023-02-22T08:22:48;217.43;;;98.25;;
68765;SDS011;55756;45.582;11.484;2023-02-22T08:25:15;216.23;;;97.47;;
68765;SDS011;55756;45.582;11.484;2023-02-22T08:27:42;203.50;;;98.03;;
68765;SDS011;55756;45.582;11.484;2023-02-22T08:30:19;200.73;;;92.80;;
68765;SDS011;55756;45.582;11.484;2023-02-22T08:32:47;188.15;;;87.95;;
68765;SDS011;55756;45.582;11.484;2023-02-22T08:35:14;195.98;;;94.22;;
68765;SDS011;55756;45.582;11.484;2023-02-22T08:37:46;194.77;;;92.63;;
68765;SDS011;55756;45.582;11.484;2023-02-22T08:40:13;196.13;;;93.20;;
68765;SDS011;55756;45.582;11.484;2023-02-22T08:42:41;187.43;;;91.72;;
68765;SDS011;55756;45.582;11.484;2023-02-22T08:45:08;180.57;;;91.43;;
68765;SDS011;55756;45.582;11.484;2023-02-22T08:47:37;187.23;;;92.63;;
68765;SDS011;55756;45.582;11.484;2023-02-22T08:50:03;191.93;;;92.88;;
68765;SDS011;55756;45.582;11.484;2023-02-22T08:52:29;190.95;;;95.90;;
68765;SDS011;55756;45.582;11.484;2023-02-22T08:54:59;202.25;;;99.10;;
68765;SDS011;55756;45.582;11.484;2023-02-22T08:57:25;188.20;;;97.20;;
68765;SDS011;55756;45.582;11.484;2023-02-22T08:59:50;187.15;;;94.40;;
68765;SDS011;55756;45.582;11.484;2023-02-22T09:02:18;181.25;;;90.53;;
68765;SDS011;55756;45.582;11.484;2023-02-22T09:04:45;177.10;;;88.68;;
68765;SDS011;55756;45.582;11.484;2023-02-22T09:07:15;177.02;;;89.15;;
68765;SDS011;55756;45.582;11.484;2023-02-22T09:09:42;165.65;;;83.13;;
68765;SDS011;55756;45.582;11.484;2023-02-22T09:12:08;174.32;;;83.22;;
68765;SDS011;55756;45.582;11.484;2023-02-22T09:14:34;175.63;;;83.20;;
68765;SDS011;55756;45.582;11.484;2023-02-22T09:17:00;156.90;;;79.10;;
68765;SDS011;55756;45.582;11.484;2023-02-22T09:19:26;168.68;;;78.25;;
68765;SDS011;55756;45.582;11.484;2023-02-22T09:21:52;157.63;;;78.38;;
68765;SDS011;55756;45.582;11.484;2023-02-22T09:24:18;165.27;;;77.95;;
68765;SDS011;55756;45.582;11.484;2023-02-22T09:26:47;154.95;;;75.32;;
68765;SDS011;55756;45.582;11.484;2023-02-22T09:29:18;150.82;;;73.70;;
68765;SDS011;55756;45.582;11.484;2023-02-22T09:31:47;143.57;;;71.72;;
68765;SDS011;55756;45.582;11.484;2023-02-22T09:34:14;145.38;;;71.00;;
68765;SDS011;55756;45.582;11.484;2023-02-22T09:36:41;140.68;;;68.75;;
68765;SDS011;55756;45.582;11.484;2023-02-22T09:39:08;140.10;;;69.13;;
68765;SDS011;55756;45.582;11.484;2023-02-22T09:41:44;146.50;;;70.07;;
68765;SDS011;55756;45.582;11.484;2023-02-22T09:47:12;134.15;;;68.88;;
68765;SDS011;55756;45.582;11.484;2023-02-22T09:49:43;144.38;;;69.35;;
68765;SDS011;55756;45.582;11.484;2023-02-22T09:54:43;137.90;;;70.15;;
68765;SDS011;55756;45.582;11.484;2023-02-22T09:57:27;148.45;;;71.35;;
68765;SDS011;55756;45.582;11.484;2023-02-22T10:05:37;150.05;;;68.70;;
68765;SDS011;55756;45.582;11.484;2023-02-22T10:08:12;147.23;;;68.80;;
68765;SDS011;55756;45.582;11.484;2023-02-22T10:10:43;135.77;;;64.78;;
68765;SDS011;55756;45.582;11.484;2023-02-22T10:13:24;139.18;;;65.38;;
68765;SDS011;55756;45.582;11.484;2023-02-22T10:16:26;141.05;;;65.88;;
68765;SDS011;55756;45.582;11.484;2023-02-22T10:27:31;131.57;;;62.45;;
68765;SDS011;55756;45.582;11.484;2023-02-22T10:32:39;126.47;;;61.38;;
68765;SDS011;55756;45.582;11.484;2023-02-22T10:35:24;130.50;;;65.93;;
68765;SDS011;55756;45.582;11.484;2023-02-22T10:40:48;125.82;;;65.05;;
68765;SDS011;55756;45.582;11.484;2023-02-22T10:43:14;127.80;;;65.38;;
68765;SDS011;55756;45.582;11.484;2023-02-22T10:45:40;130.00;;;63.80;;
68765;SDS011;55756;45.582;11.484;2023-02-22T10:48:07;126.63;;;63.80;;
68765;SDS011;55756;45.582;11.484;2023-02-22T10:50:37;133.80;;;63.50;;
68765;SDS011;55756;45.582;11.484;2023-02-22T10:53:05;126.05;;;61.92;;
68765;SDS011;55756;45.582;11.484;2023-02-22T10:55:32;132.68;;;64.47;;
68765;SDS011;55756;45.582;11.484;2023-02-22T10:58:00;122.82;;;61.60;;
68765;SDS011;55756;45.582;11.484;2023-02-22T11:00:30;122.95;;;59.97;;
68765;SDS011;55756;45.582;11.484;2023-02-22T11:03:02;109.30;;;53.42;;
68765;SDS011;55756;45.582;11.484;2023-02-22T11:05:33;102.47;;;52.30;;
68765;SDS011;55756;45.582;11.484;2023-02-22T11:10:45;98.43;;;50.72;;
68765;SDS011;55756;45.582;11.484;2023-02-22T11:13:23;95.97;;;50.72;;
68765;SDS011;55756;45.582;11.484;2023-02-22T11:21:34;102.03;;;53.78;;
68765;SDS011;55756;45.582;11.484;2023-02-22T11:24:01;101.05;;;52.67;;
68765;SDS011;55756;45.582;11.484;2023-02-22T11:26:35;103.15;;;53.33;;
68765;SDS011;55756;45.582;11.484;2023-02-22T11:29:30;101.40;;;52.17;;
68765;SDS011;55756;45.582;11.484;2023-02-22T11:32:01;107.93;;;52.83;;
68765;SDS011;55756;45.582;11.484;2023-02-22T11:34:38;97.95;;;51.55;;
68765;SDS011;55756;45.582;11.484;2023-02-22T11:37:17;108.28;;;53.10;;
68765;SDS011;55756;45.582;11.484;2023-02-22T11:39:47;97.75;;;51.25;;
68765;SDS011;55756;45.582;11.484;2023-02-22T11:42:28;99.80;;;50.53;;
68765;SDS011;55756;45.582;11.484;2023-02-22T11:47:48;108.35;;;52.92;;
68765;SDS011;55756;45.582;11.484;2023-02-22T11:50:28;101.63;;;52.20;;
68765;SDS011;55756;45.582;11.484;2023-02-22T11:53:39;109.63;;;53.88;;
68765;SDS011;55756;45.582;11.484;2023-02-22T11:56:30;109.15;;;55.55;;
68765;SDS011;55756;45.582;11.484;2023-02-22T12:09:59;116.82;;;58.65;;
68765;SDS011;55756;45.582;11.484;2023-02-22T12:15:46;121.35;;;58.58;;
68765;SDS011;55756;45.582;11.484;2023-02-22T12:31:51;122.88;;;61.63;;
68765;SDS011;55756;45.582;11.484;2023-02-22T12:34:40;117.10;;;60.40;;
68765;SDS011;55756;45.582;11.484;2023-02-22T12:37:46;117.63;;;61.97;;
68765;SDS011;55756;45.582;11.484;2023-02-22T13:03:46;112.28;;;57.17;;
68765;SDS011;55756;45.582;11.484;2023-02-22T13:10:32;124.35;;;60.55;;
68765;SDS011;55756;45.582;11.484;2023-02-22T13:16:20;125.72;;;63.22;;
68765;SDS011;55756;45.582;11.484;2023-02-22T13:19:14;117.07;;;61.42;;
68765;SDS011;55756;45.582;11.484;2023-02-22T13:30:40;123.05;;;61.40;;
68765;SDS011;55756;45.582;11.484;2023-02-22T13:33:15;125.22;;;61.72;;
68765;SDS011;55756;45.582;11.484;2023-02-22T13:39:04;127.60;;;64.45;;
68765;SDS011;55756;45.582;11.484;2023-02-22T13:52:46;128.27;;;65.57;;
68765;SDS011;55756;45.582;11.484;2023-02-22T13:55:25;128.15;;;65.32;;
68765;SDS011;55756;45.582;11.484;2023-02-22T13:58:01;124.38;;;65.57;;
68765;SDS011;55756;45.582;11.484;2023-02-22T14:00:47;131.18;;;66.43;;
68765;SDS011;55756;45.582;11.484;2023-02-22T14:03:38;129.77;;;63.90;;
68765;SDS011;55756;45.582;11.484;2023-02-22T14:06:06;127.30;;;65.55;;
68765;SDS011;55756;45.582;11.484;2023-02-22T14:11:00;123.57;;;64.20;;
68765;SDS011;55756;45.582;11.484;2023-02-22T14:16:28;133.98;;;65.38;;
68765;SDS011;55756;45.582;11.484;2023-02-22T14:21:31;141.25;;;64.80;;
68765;SDS011;55756;45.582;11.484;2023-02-22T14:24:23;134.25;;;66.55;;
68765;SDS011;55756;45.582;11.484;2023-02-22T14:26:54;137.65;;;65.55;;
68765;SDS011;55756;45.582;11.484;2023-02-22T14:29:25;128.40;;;65.40;;
68765;SDS011;55756;45.582;11.484;2023-02-22T14:32:01;131.13;;;64.70;;
68765;SDS011;55756;45.582;11.484;2023-02-22T14:34:57;128.77;;;65.53;;
68765;SDS011;55756;45.582;11.484;2023-02-22T14:37:33;127.88;;;66.32;;
68765;SDS011;55756;45.582;11.484;2023-02-22T14:40:05;124.47;;;64.55;;
68765;SDS011;55756;45.582;11.484;2023-02-22T14:45:30;171.40;;;87.22;;
68765;SDS011;55756;45.582;11.484;2023-02-22T14:55:52;126.22;;;63.22;;
68765;SDS011;55756;45.582;11.484;2023-02-22T14:58:31;126.28;;;65.43;;
68765;SDS011;55756;45.582;11.484;2023-02-22T15:01:23;122.72;;;62.97;;
68765;SDS011;55756;45.582;11.484;2023-02-22T15:07:07;123.32;;;64.57;;
68765;SDS011;55756;45.582;11.484;2023-02-22T15:09:44;120.75;;;62.22;;
68765;SDS011;55756;45.582;11.484;2023-02-22T15:12:20;123.88;;;63.25;;
68765;SDS011;55756;45.582;11.484;2023-02-22T15:15:09;124.65;;;61.92;;
68765;SDS011;55756;45.582;11.484;2023-02-22T15:17:38;128.05;;;62.42;;
68765;SDS011;55756;45.582;11.484;2023-02-22T15:20:05;133.80;;;63.38;;
68765;SDS011;55756;45.582;11.484;2023-02-22T15:22:34;132.10;;;60.95;;
68765;SDS011;55756;45.582;11.484;2023-02-22T15:25:04;124.60;;;60.50;;
68765;SDS011;55756;45.582;11.484;2023-02-22T15:27:33;121.47;;;61.67;;
68765;SDS011;55756;45.582;11.484;2023-02-22T15:30:05;126.97;;;63.70;;
68765;SDS011;55756;45.582;11.484;2023-02-22T15:32:34;122.57;;;61.22;;
68765;SDS011;55756;45.582;11.484;2023-02-22T15:35:12;125.78;;;63.47;;
68765;SDS011;55756;45.582;11.484;2023-02-22T15:37:40;126.00;;;63.20;;
68765;SDS011;55756;45.582;11.484;2023-02-22T15:40:13;124.78;;;63.83;;
68765;SDS011;55756;45.582;11.484;2023-02-22T15:42:50;132.25;;;64.53;;
68765;SDS011;55756;45.582;11.484;2023-02-22T15:45:24;127.43;;;64.45;;
68765;SDS011;55756;45.582;11.484;2023-02-22T15:47:51;128.43;;;65.53;;
68765;SDS011;55756;45.582;11.484;2023-02-22T15:50:25;137.30;;;66.57;;
68765;SDS011;55756;45.582;11.484;2023-02-22T15:55:42;127.95;;;62.33;;
68765;SDS011;55756;45.582;11.484;2023-02-22T16:00:40;124.78;;;65.78;;
68765;SDS011;55756;45.582;11.484;2023-02-22T16:03:12;139.27;;;65.68;;
68765;SDS011;55756;45.582;11.484;2023-02-22T16:05:51;133.73;;;65.72;;
68765;SDS011;55756;45.582;11.484;2023-02-22T16:08:40;128.55;;;68.35;;
68765;SDS011;55756;45.582;11.484;2023-02-22T16:11:14;130.45;;;66.95;;
68765;SDS011;55756;45.582;11.484;2023-02-22T16:13:55;134.40;;;64.97;;
68765;SDS011;55756;45.582;11.484;2023-02-22T16:16:26;139.50;;;68.38;;
68765;SDS011;55756;45.582;11.484;2023-02-22T16:19:18;143.15;;;67.47;;
68765;SDS011;55756;45.582;11.484;2023-02-22T16:22:04;141.27;;;68.20;;
68765;SDS011;55756;45.582;11.484;2023-02-22T16:24:37;147.75;;;68.13;;
68765;SDS011;55756;45.582;11.484;2023-02-22T16:29:39;141.23;;;68.10;;
68765;SDS011;55756;45.582;11.484;2023-02-22T16:32:06;143.55;;;68.65;;
68765;SDS011;55756;45.582;11.484;2023-02-22T16:34:32;147.00;;;69.10;;
68765;SDS011;55756;45.582;11.484;2023-02-22T16:36:58;142.05;;;68.80;;
68765;SDS011;55756;45.582;11.484;2023-02-22T16:39:26;151.02;;;69.75;;
68765;SDS011;55756;45.582;11.484;2023-02-22T16:42:00;143.18;;;67.93;;
68765;SDS011;55756;45.582;11.484;2023-02-22T16:44:27;146.68;;;69.97;;
68765;SDS011;55756;45.582;11.484;2023-02-22T16:46:57;157.73;;;70.85;;
68765;SDS011;55756;45.582;11.484;2023-02-22T16:49:24;150.30;;;70.53;;
68765;SDS011;55756;45.582;11.484;2023-02-22T16:51:57;144.32;;;72.60;;
68765;SDS011;55756;45.582;11.484;2023-02-22T16:54:39;143.57;;;70.28;;
68765;SDS011;55756;45.582;11.484;2023-02-22T16:57:06;141.90;;;72.88;;
68765;SDS011;55756;45.582;11.484;2023-02-22T16:59:39;138.40;;;72.00;;
68765;SDS011;55756;45.582;11.484;2023-02-22T17:02:08;152.50;;;70.60;;
68765;SDS011;55756;45.582;11.484;2023-02-22T17:04:39;149.75;;;69.45;;
68765;SDS011;55756;45.582;11.484;2023-02-22T17:07:05;148.15;;;72.05;;
68765;SDS011;55756;45.582;11.484;2023-02-22T17:09:33;138.10;;;70.68;;
68765;SDS011;55756;45.582;11.484;2023-02-22T17:11:59;139.73;;;72.40;;
68765;SDS011;55756;45.582;11.484;2023-02-22T17:14:28;142.38;;;73.45;;
68765;SDS011;55756;45.582;11.484;2023-02-22T17:16:59;138.48;;;71.43;;